Time;durP1;ratioP1;P1;durP2;ratioP2;P2;SDS_P1;SDS_P2;PMS_P1;PMS_P2;Temp;Humidity;BMP_temperature;BMP_pressure;BME280_temperature;BME280_humidity;BME280_pressure;Samples;Min_cycle;Max_cycle;Signal;HPM_P1;HPM_P2
2022/10/08 00:00:52;;;;;;;;;;;12.20;99.90;;;;;;5103866;28;19927;-90
2022/10/08 00:03:19;;;;;;;;;;;12.10;99.90;;;;;;5104610;28;19923;-89
2022/10/08 00:05:55;;;;;;;;;;;12.10;99.90;;;;;;5121547;28;20023;-89
2022/10/08 00:08:22;;;;;;;;;;;12.10;99.90;;;;;;5135356;27;20016;-90
2022/10/08 00:10:55;;;;;;;;;;;12.10;99.90;;;;;;5086883;28;20015;-90
2022/10/08 00:13:22;;;;;;;;;;;12.00;99.90;;;;;;5104927;28;19959;-89
2022/10/08 00:15:48;;;;;;;;;;;12.00;99.90;;;;;;5119699;28;19924;-89
2022/10/08 00:18:14;;;;;;;;;;;12.00;99.90;;;;;;5117420;28;19923;-90
2022/10/08 00:20:39;;;;;;;;;;;12.00;99.90;;;;;;5104735;28;19976;-89
2022/10/08 00:23:05;;;;;;;;;;;12.00;99.90;;;;;;5102688;28;20410;-90
2022/10/08 00:25:31;;;;;;;;;;;11.90;99.90;;;;;;5099252;28;19931;-89
2022/10/08 00:27:56;;;;;;;;;;;12.00;99.90;;;;;;5120095;28;19935;-90
2022/10/08 00:30:22;;;;;;;;;;;11.90;99.90;;;;;;5104440;28;19976;-90
2022/10/08 00:32:47;;;;;;;;;;;12.00;99.90;;;;;;5086267;28;20240;-90
2022/10/08 00:35:13;;;;;;;;;;;12.00;99.90;;;;;;5087600;28;19987;-89
2022/10/08 00:37:38;;;;;;;;;;;12.00;99.90;;;;;;5121268;28;19931;-90
2022/10/08 00:40:04;;;;;;;;;;;12.00;99.90;;;;;;5087249;28;20018;-89
2022/10/08 00:42:30;;;;;;;;;;;12.00;99.90;;;;;;5087408;28;20375;-90
2022/10/08 00:44:57;;;;;;;;;;;12.00;99.90;;;;;;5103205;28;19931;-88
2022/10/08 00:47:31;;;;;;;;;;;12.00;99.90;;;;;;5119788;28;19924;-90
2022/10/08 00:50:17;;;;;;;;;;;11.90;99.90;;;;;;5103426;28;19931;-89
2022/10/08 00:52:45;;;;;;;;;;;11.90;99.90;;;;;;5125454;27;19932;-91
2022/10/08 00:55:11;;;;;;;;;;;12.00;99.90;;;;;;5121629;28;19979;-89
2022/10/08 00:57:37;;;;;;;;;;;12.00;99.90;;;;;;5102688;28;19968;-88
2022/10/08 01:00:06;;;;;;;;;;;11.90;99.90;;;;;;5103528;28;19924;-91
2022/10/08 01:02:31;;;;;;;;;;;11.90;99.90;;;;;;5113874;28;19943;-89
2022/10/08 01:04:57;;;;;;;;;;;11.90;99.90;;;;;;5121367;28;19924;-90
2022/10/08 01:07:49;;;;;;;;;;;11.90;99.90;;;;;;5102970;28;19987;-90
2022/10/08 01:10:18;;;;;;;;;;;11.90;99.90;;;;;;5128528;27;19964;-91
2022/10/08 01:13:10;;;;;;;;;;;11.90;99.90;;;;;;5120890;28;20003;-89
2022/10/08 01:15:42;;;;;;;;;;;11.90;99.90;;;;;;5118124;28;20014;-90
2022/10/08 01:18:23;;;;;;;;;;;11.90;99.90;;;;;;5103641;28;19931;-89
2022/10/08 01:20:49;;;;;;;;;;;11.90;99.90;;;;;;5120542;28;19928;-91
2022/10/08 01:23:15;;;;;;;;;;;11.90;99.90;;;;;;5120238;28;19999;-89
2022/10/08 01:25:44;;;;;;;;;;;11.90;99.90;;;;;;5103872;28;19924;-90
2022/10/08 01:28:16;;;;;;;;;;;11.90;99.90;;;;;;5102439;28;19934;-90
2022/10/08 01:30:48;;;;;;;;;;;11.90;99.90;;;;;;5119233;28;19931;-90
2022/10/08 01:33:18;;;;;;;;;;;13.10;99.90;;;;;;5103701;28;19924;-90
2022/10/08 01:35:46;;;;;;;;;;;11.90;99.90;;;;;;5103087;28;19938;-91
2022/10/08 01:38:15;;;;;;;;;;;11.80;99.90;;;;;;5123035;28;19934;-91
2022/10/08 01:40:40;;;;;;;;;;;11.80;99.90;;;;;;5104268;28;19924;-90
2022/10/08 01:43:08;;;;;;;;;;;11.70;99.90;;;;;;5106749;28;19986;-91
2022/10/08 01:45:36;;;;;;;;;;;11.70;99.90;;;;;;5120981;28;19924;-90
2022/10/08 01:48:04;;;;;;;;;;;11.60;99.90;;;;;;5104521;28;19924;-89
2022/10/08 01:50:40;;;;;;;;;;;11.60;99.90;;;;;;5117581;28;19924;-89
2022/10/08 01:53:11;;;;;;;;;;;11.50;99.90;;;;;;5111270;28;19997;-89
2022/10/08 01:55:41;;;;;;;;;;;11.50;99.90;;;;;;5121092;28;19924;-91
2022/10/08 01:58:14;;;;;;;;;;;11.40;99.90;;;;;;5109733;28;20534;-90
2022/10/08 02:00:41;;;;;;;;;;;11.30;99.90;;;;;;5118745;28;20360;-89
2022/10/08 02:03:10;;;;;;;;;;;11.30;99.90;;;;;;5103001;28;19935;-88
2022/10/08 02:05:37;;;;;;;;;;;11.20;99.90;;;;;;5111288;28;20033;-89
2022/10/08 02:08:03;;;;;;;;;;;11.20;99.90;;;;;;5120206;28;19969;-90
2022/10/08 02:10:29;;;;;;;;;;;11.10;99.90;;;;;;5118916;28;19923;-89
2022/10/08 02:12:54;;;;;;;;;;;11.10;99.90;;;;;;5116841;28;19928;-90
2022/10/08 02:15:34;;;;;;;;;;;11.00;99.90;;;;;;5101388;28;19928;-89
2022/10/08 02:18:09;;;;;;;;;;;11.00;99.90;;;;;;5119301;28;19924;-90
2022/10/08 02:20:39;;;;;;;;;;;10.90;99.90;;;;;;5100861;28;19934;-89
2022/10/08 02:23:24;;;;;;;;;;;10.90;99.90;;;;;;5102089;28;19935;-91
2022/10/08 02:26:00;;;;;;;;;;;10.80;99.90;;;;;;5119630;28;19990;-91
2022/10/08 02:28:42;;;;;;;;;;;10.80;99.90;;;;;;5081591;28;19928;-91
2022/10/08 02:31:12;;;;;;;;;;;10.80;99.90;;;;;;5114240;28;19931;-90
2022/10/08 02:34:01;;;;;;;;;;;10.70;99.90;;;;;;5102350;28;19924;-89
2022/10/08 02:36:30;;;;;;;;;;;10.70;99.90;;;;;;5089401;28;19928;-89
2022/10/08 02:38:58;;;;;;;;;;;10.60;99.90;;;;;;5102844;28;19924;-89
2022/10/08 02:41:29;;;;;;;;;;;10.60;99.90;;;;;;5110137;28;19924;-90
2022/10/08 02:43:56;;;;;;;;;;;10.60;99.90;;;;;;5099832;28;19924;-90
2022/10/08 02:46:24;;;;;;;;;;;10.60;99.90;;;;;;5109752;28;19931;-90
2022/10/08 02:48:54;;;;;;;;;;;10.60;99.90;;;;;;5101437;28;20006;-91
2022/10/08 02:51:20;;;;;;;;;;;10.60;99.90;;;;;;5091714;28;19931;-90
2022/10/08 02:53:48;;;;;;;;;;;10.50;99.90;;;;;;5101454;28;19924;-91
2022/10/08 02:56:16;;;;;;;;;;;10.50;99.90;;;;;;5102377;28;19924;-90
2022/10/08 02:58:42;;;;;;;;;;;10.50;99.90;;;;;;5118414;28;19930;-90
2022/10/08 03:01:14;;;;;;;;;;;10.50;99.90;;;;;;5116054;28;19987;-90
2022/10/08 03:03:47;;;;;;;;;;;10.50;99.90;;;;;;5119284;28;19923;-91
2022/10/08 03:06:14;;;;;;;;;;;10.40;99.90;;;;;;5109330;28;19945;-89
2022/10/08 03:08:43;;;;;;;;;;;10.40;99.90;;;;;;5119395;28;20386;-89
2022/10/08 03:11:09;;;;;;;;;;;10.30;99.90;;;;;;5101076;28;19930;-89
2022/10/08 03:13:36;;;;;;;;;;;10.30;99.90;;;;;;5102344;28;19927;-89
2022/10/08 03:16:04;;;;;;;;;;;10.40;99.90;;;;;;5100180;28;20367;-88
2022/10/08 03:18:30;;;;;;;;;;;10.30;99.90;;;;;;5113858;28;20003;-89
2022/10/08 03:20:57;;;;;;;;;;;10.30;99.90;;;;;;5105640;28;20007;-90
2022/10/08 03:23:22;;;;;;;;;;;10.30;99.90;;;;;;5088085;28;20040;-90
2022/10/08 03:25:48;;;;;;;;;;;10.30;99.90;;;;;;5105823;28;19924;-91
2022/10/08 03:28:13;;;;;;;;;;;10.30;99.90;;;;;;5085855;28;19931;-89
2022/10/08 03:30:39;;;;;;;;;;;10.40;99.90;;;;;;5099072;28;19930;-89
2022/10/08 03:33:05;;;;;;;;;;;10.40;99.90;;;;;;5105235;28;19944;-90
2022/10/08 03:35:31;;;;;;;;;;;10.50;99.90;;;;;;5084969;28;20452;-90
2022/10/08 03:37:56;;;;;;;;;;;10.50;99.90;;;;;;5104176;28;19930;-89
2022/10/08 03:40:22;;;;;;;;;;;10.60;99.90;;;;;;5121782;28;19924;-90
2022/10/08 03:42:47;;;;;;;;;;;10.60;99.90;;;;;;5117468;28;19923;-90
2022/10/08 03:45:13;;;;;;;;;;;10.60;99.90;;;;;;5086899;28;20378;-90
2022/10/08 03:47:38;;;;;;;;;;;10.70;99.90;;;;;;5090490;28;20348;-90
2022/10/08 03:50:04;;;;;;;;;;;10.70;99.90;;;;;;5105001;28;19979;-89
2022/10/08 03:52:30;;;;;;;;;;;10.70;99.90;;;;;;5091023;28;19924;-89
2022/10/08 03:54:55;;;;;;;;;;;10.70;99.90;;;;;;5105603;28;19935;-89
2022/10/08 03:57:21;;;;;;;;;;;10.60;99.90;;;;;;5086594;28;19924;-90
2022/10/08 03:59:47;;;;;;;;;;;10.60;99.90;;;;;;5122715;28;19950;-89
2022/10/08 04:02:13;;;;;;;;;;;10.50;99.90;;;;;;5102752;28;19924;-88
2022/10/08 04:04:38;;;;;;;;;;;10.50;99.90;;;;;;5105476;28;20351;-90
2022/10/08 04:07:04;;;;;;;;;;;10.50;99.90;;;;;;5100627;28;19935;-89
2022/10/08 04:09:29;;;;;;;;;;;10.50;99.90;;;;;;5114243;28;19924;-90
2022/10/08 04:11:55;;;;;;;;;;;10.40;99.90;;;;;;5122106;28;20018;-89
2022/10/08 04:14:20;;;;;;;;;;;10.40;99.90;;;;;;5121313;28;20378;-91
2022/10/08 04:16:47;;;;;;;;;;;10.40;99.90;;;;;;5116544;28;19963;-90
2022/10/08 04:19:13;;;;;;;;;;;10.30;99.90;;;;;;5104120;28;19945;-89
2022/10/08 04:21:38;;;;;;;;;;;10.20;99.90;;;;;;5104022;28;19948;-90
2022/10/08 04:24:04;;;;;;;;;;;10.20;99.90;;;;;;5120819;28;19949;-90
2022/10/08 04:26:30;;;;;;;;;;;10.20;99.90;;;;;;5104642;28;19930;-89
2022/10/08 04:28:55;;;;;;;;;;;10.20;99.90;;;;;;5120631;28;20605;-90
2022/10/08 04:31:22;;;;;;;;;;;10.10;99.90;;;;;;5119774;28;20565;-90
2022/10/08 04:33:48;;;;;;;;;;;10.10;99.90;;;;;;5104303;28;20287;-89
2022/10/08 04:36:17;;;;;;;;;;;10.10;99.90;;;;;;5100084;28;19960;-89
2022/10/08 04:38:44;;;;;;;;;;;10.00;99.90;;;;;;5121861;28;19924;-89
2022/10/08 04:41:14;;;;;;;;;;;10.00;99.90;;;;;;5104615;28;19923;-88
2022/10/08 04:43:40;;;;;;;;;;;9.90;99.90;;;;;;5106405;28;20365;-90
2022/10/08 04:46:10;;;;;;;;;;;9.90;99.90;;;;;;5105516;28;19923;-90
2022/10/08 04:48:35;;;;;;;;;;;9.80;99.90;;;;;;5107045;28;19961;-90
2022/10/08 04:51:02;;;;;;;;;;;9.80;99.90;;;;;;5126201;28;19931;-89
2022/10/08 04:53:28;;;;;;;;;;;9.70;99.90;;;;;;5112896;28;19923;-91
2022/10/08 04:55:54;;;;;;;;;;;9.70;99.90;;;;;;5129137;28;19927;-90
2022/10/08 04:58:20;;;;;;;;;;;9.70;99.90;;;;;;5128779;28;19924;-90
2022/10/08 05:00:46;;;;;;;;;;;9.70;99.90;;;;;;5110257;28;20333;-89
2022/10/08 05:03:12;;;;;;;;;;;9.70;99.90;;;;;;5125602;28;19924;-91
2022/10/08 05:05:38;;;;;;;;;;;9.70;99.90;;;;;;5106278;28;19927;-91
2022/10/08 05:08:04;;;;;;;;;;;11.20;99.90;;;;;;5103648;28;19932;-90
2022/10/08 05:10:29;;;;;;;;;;;9.70;99.90;;;;;;5101109;28;19963;-90
2022/10/08 05:12:55;;;;;;;;;;;9.70;99.90;;;;;;5104027;28;19927;-91
2022/10/08 05:15:21;;;;;;;;;;;9.70;99.90;;;;;;5118546;28;19973;-90
2022/10/08 05:17:46;;;;;;;;;;;9.70;99.90;;;;;;5084593;28;19924;-89
2022/10/08 05:20:12;;;;;;;;;;;9.60;99.90;;;;;;5120916;28;19924;-89
2022/10/08 05:22:37;;;;;;;;;;;9.60;99.90;;;;;;5120575;28;19930;-89
2022/10/08 05:25:03;;;;;;;;;;;9.60;99.90;;;;;;5104542;28;19966;-89
2022/10/08 05:27:30;;;;;;;;;;;9.50;99.90;;;;;;5115099;28;20338;-91
2022/10/08 05:29:55;;;;;;;;;;;9.50;99.90;;;;;;5107083;28;19932;-85
2022/10/08 05:32:21;;;;;;;;;;;9.50;99.90;;;;;;5083942;28;20091;-84
2022/10/08 05:34:46;;;;;;;;;;;9.50;99.90;;;;;;5104023;28;19924;-83
2022/10/08 05:37:12;;;;;;;;;;;9.50;99.90;;;;;;5102571;28;19924;-83
2022/10/08 05:39:37;;;;;;;;;;;9.40;99.90;;;;;;5085759;28;19992;-85
2022/10/08 05:42:03;;;;;;;;;;;9.40;99.90;;;;;;5086312;28;19923;-84
2022/10/08 05:44:29;;;;;;;;;;;9.40;99.90;;;;;;5102848;28;19924;-84
2022/10/08 05:46:54;;;;;;;;;;;9.40;99.90;;;;;;5118937;28;19943;-84
2022/10/08 05:49:21;;;;;;;;;;;9.40;99.90;;;;;;5102595;28;19972;-84
2022/10/08 05:51:47;;;;;;;;;;;9.30;99.90;;;;;;5103219;28;19986;-85
2022/10/08 05:54:13;;;;;;;;;;;9.40;99.90;;;;;;5102713;28;19928;-84
2022/10/08 05:56:39;;;;;;;;;;;9.40;99.90;;;;;;5102808;28;19928;-84
2022/10/08 05:59:05;;;;;;;;;;;9.40;99.90;;;;;;5083703;28;19937;-84
2022/10/08 06:01:31;;;;;;;;;;;9.40;99.90;;;;;;5117446;28;19923;-85
2022/10/08 06:03:58;;;;;;;;;;;9.30;99.90;;;;;;5103761;28;19924;-84
2022/10/08 06:06:24;;;;;;;;;;;9.30;99.90;;;;;;5098866;28;20387;-84
2022/10/08 06:09:00;;;;;;;;;;;9.30;99.90;;;;;;5119502;28;19931;-85
2022/10/08 06:11:30;;;;;;;;;;;9.40;99.90;;;;;;5119140;28;19933;-84
2022/10/08 06:13:57;;;;;;;;;;;9.40;99.90;;;;;;5119914;28;20422;-85
2022/10/08 06:16:23;;;;;;;;;;;9.40;99.90;;;;;;5118663;28;19923;-85
2022/10/08 06:18:49;;;;;;;;;;;9.40;99.90;;;;;;5093130;28;19931;-84
2022/10/08 06:21:16;;;;;;;;;;;9.30;99.90;;;;;;5120018;28;19987;-84
2022/10/08 06:23:46;;;;;;;;;;;7.70;99.90;;;;;;5102105;28;19956;-85
2022/10/08 06:26:12;;;;;;;;;;;9.40;99.90;;;;;;5103316;28;19985;-84
2022/10/08 06:28:38;;;;;;;;;;;9.40;99.90;;;;;;5117506;28;20304;-84
2022/10/08 06:31:04;;;;;;;;;;;9.40;99.90;;;;;;5101303;28;19924;-84
2022/10/08 06:33:30;;;;;;;;;;;9.40;99.90;;;;;;5116897;28;19967;-84
2022/10/08 06:35:55;;;;;;;;;;;9.50;99.90;;;;;;5114164;28;20330;-84
2022/10/08 06:38:21;;;;;;;;;;;9.60;99.90;;;;;;5103097;28;19979;-84
2022/10/08 06:40:47;;;;;;;;;;;9.70;99.90;;;;;;5101278;28;20415;-84
2022/10/08 06:43:14;;;;;;;;;;;9.80;99.90;;;;;;5120146;28;20043;-85
2022/10/08 06:45:41;;;;;;;;;;;9.80;99.90;;;;;;5114926;28;19931;-85
2022/10/08 06:48:07;;;;;;;;;;;9.90;99.90;;;;;;5091839;28;19924;-84
2022/10/08 06:50:33;;;;;;;;;;;9.90;99.90;;;;;;5113908;28;20355;-84
2022/10/08 06:52:59;;;;;;;;;;;10.00;99.90;;;;;;5123295;28;20374;-85
2022/10/08 06:55:24;;;;;;;;;;;10.20;99.90;;;;;;5107023;28;20134;-85
2022/10/08 06:57:50;;;;;;;;;;;10.40;99.90;;;;;;5105152;28;20232;-85
2022/10/08 07:00:16;;;;;;;;;;;10.50;99.90;;;;;;5123492;28;19930;-86
2022/10/08 07:02:43;;;;;;;;;;;10.60;99.90;;;;;;5121224;28;20022;-86
2022/10/08 07:05:08;;;;;;;;;;;10.60;99.90;;;;;;5104124;28;19924;-86
2022/10/08 07:07:34;;;;;;;;;;;10.70;99.90;;;;;;5106426;28;19963;-86
2022/10/08 07:09:59;;;;;;;;;;;10.70;99.90;;;;;;5105731;28;19923;-86
2022/10/08 07:12:25;;;;;;;;;;;10.70;99.90;;;;;;5106609;28;19928;-86
2022/10/08 07:14:51;;;;;;;;;;;10.70;99.90;;;;;;5122020;28;19966;-86
2022/10/08 07:17:16;;;;;;;;;;;10.60;99.90;;;;;;5104654;28;19924;-86
2022/10/08 07:19:42;;;;;;;;;;;10.60;99.90;;;;;;5105646;28;19924;-87
2022/10/08 07:22:07;;;;;;;;;;;10.60;99.90;;;;;;5105734;28;19924;-87
2022/10/08 07:24:33;;;;;;;;;;;10.60;99.90;;;;;;5105487;28;19924;-86
2022/10/08 07:26:59;;;;;;;;;;;10.70;99.90;;;;;;5081544;28;19930;-87
2022/10/08 07:29:25;;;;;;;;;;;10.70;99.90;;;;;;5117397;28;19924;-87
2022/10/08 07:31:50;;;;;;;;;;;10.70;99.90;;;;;;5076943;28;19934;-87
2022/10/08 07:34:16;;;;;;;;;;;10.70;99.90;;;;;;5098962;28;19931;-87
2022/10/08 07:36:41;;;;;;;;;;;10.60;99.90;;;;;;5083661;28;19924;-85
2022/10/08 07:39:10;;;;;;;;;;;10.60;99.90;;;;;;5081751;28;20322;-87
2022/10/08 07:41:36;;;;;;;;;;;10.70;99.90;;;;;;5116115;28;20381;-86
2022/10/08 07:44:01;;;;;;;;;;;10.80;99.90;;;;;;5104187;28;19931;-86
2022/10/08 07:46:46;;;;;;;;;;;10.90;99.90;;;;;;5114735;28;19987;-86
2022/10/08 07:49:12;;;;;;;;;;;10.90;99.90;;;;;;5114365;28;19930;-87
2022/10/08 07:51:38;;;;;;;;;;;10.90;99.90;;;;;;5122249;28;19924;-87
2022/10/08 07:54:05;;;;;;;;;;;10.90;99.90;;;;;;5121917;28;19924;-86
2022/10/08 07:56:31;;;;;;;;;;;10.90;99.90;;;;;;5104220;28;20338;-87
2022/10/08 07:58:57;;;;;;;;;;;11.00;99.90;;;;;;5122260;28;20320;-87
2022/10/08 08:01:28;;;;;;;;;;;11.00;99.90;;;;;;5103259;28;19986;-86
2022/10/08 08:03:58;;;;;;;;;;;11.00;99.90;;;;;;5085976;28;19928;-87
2022/10/08 08:06:24;;;;;;;;;;;11.10;99.90;;;;;;5120475;28;19985;-86
2022/10/08 08:08:50;;;;;;;;;;;11.10;99.90;;;;;;5122479;28;19924;-87
2022/10/08 08:11:16;;;;;;;;;;;11.10;99.90;;;;;;5102683;28;19973;-87
2022/10/08 08:13:42;;;;;;;;;;;11.20;99.90;;;;;;5104410;28;19924;-87
2022/10/08 08:16:15;;;;;;;;;;;11.20;99.90;;;;;;5103597;28;19924;-86
2022/10/08 08:18:42;;;;;;;;;;;11.30;99.90;;;;;;5102886;28;19924;-86
2022/10/08 08:21:27;;;;;;;;;;;11.50;99.90;;;;;;5104657;28;19928;-87
2022/10/08 08:23:53;;;;;;;;;;;11.50;99.90;;;;;;5103441;28;19924;-86
2022/10/08 08:26:24;;;;;;;;;;;11.60;99.90;;;;;;5104359;28;20391;-87
2022/10/08 08:28:57;;;;;;;;;;;11.80;99.90;;;;;;5103586;28;19978;-87
2022/10/08 08:31:24;;;;;;;;;;;11.90;99.90;;;;;;5102326;28;19923;-87
2022/10/08 08:33:51;;;;;;;;;;;12.00;99.90;;;;;;5101899;28;19931;-87
2022/10/08 08:36:17;;;;;;;;;;;12.10;99.90;;;;;;5103092;28;19977;-87
2022/10/08 08:38:43;;;;;;;;;;;12.20;99.90;;;;;;5120918;28;19923;-87
2022/10/08 08:41:28;;;;;;;;;;;12.30;99.90;;;;;;5082587;28;19955;-86
2022/10/08 08:44:01;;;;;;;;;;;12.40;99.90;;;;;;5098842;28;19981;-87
2022/10/08 08:46:28;;;;;;;;;;;12.40;99.90;;;;;;5111071;28;19935;-86
2022/10/08 08:48:55;;;;;;;;;;;12.50;99.90;;;;;;5109959;28;20004;-86
2022/10/08 08:51:20;;;;;;;;;;;12.60;99.90;;;;;;5104312;28;19963;-87
2022/10/08 08:53:46;;;;;;;;;;;12.60;99.90;;;;;;5085998;28;19924;-87
2022/10/08 08:56:14;;;;;;;;;;;12.70;99.90;;;;;;5110800;28;19963;-87
2022/10/08 08:58:40;;;;;;;;;;;12.70;99.90;;;;;;5119972;28;19923;-86
2022/10/08 09:01:08;;;;;;;;;;;12.70;99.90;;;;;;5118773;28;19999;-87
2022/10/08 09:03:34;;;;;;;;;;;12.80;99.90;;;;;;5104157;28;19932;-87
2022/10/08 09:06:04;;;;;;;;;;;12.80;99.90;;;;;;5116821;28;20006;-86
2022/10/08 09:08:39;;;;;;;;;;;12.80;99.90;;;;;;5104116;28;20017;-86
2022/10/08 09:11:05;;;;;;;;;;;13.00;99.90;;;;;;5102887;28;19927;-87
2022/10/08 09:13:49;;;;;;;;;;;13.00;99.90;;;;;;5103624;28;19986;-87
2022/10/08 09:16:15;;;;;;;;;;;13.10;99.90;;;;;;5102322;28;19965;-87
2022/10/08 09:18:42;;;;;;;;;;;13.10;99.90;;;;;;5119882;28;19924;-87
2022/10/08 09:21:09;;;;;;;;;;;13.10;99.90;;;;;;5101871;28;20409;-86
2022/10/08 09:23:35;;;;;;;;;;;13.20;99.90;;;;;;5085763;28;19957;-87
2022/10/08 09:26:03;;;;;;;;;;;13.20;99.90;;;;;;5102988;28;19974;-88
2022/10/08 09:28:47;;;;;;;;;;;13.30;99.90;;;;;;5102597;28;19998;-85
2022/10/08 09:31:16;;;;;;;;;;;13.50;99.90;;;;;;5116729;28;20034;-86
2022/10/08 09:33:42;;;;;;;;;;;13.60;99.90;;;;;;5111941;28;19923;-86
2022/10/08 09:36:08;;;;;;;;;;;13.70;99.90;;;;;;5116718;28;19924;-85
2022/10/08 09:38:35;;;;;;;;;;;13.70;99.90;;;;;;5094288;28;20315;-87
2022/10/08 09:41:00;;;;;;;;;;;13.70;99.90;;;;;;5097226;28;19924;-87
2022/10/08 09:43:26;;;;;;;;;;;13.60;99.90;;;;;;5110512;28;19939;-88
2022/10/08 09:45:53;;;;;;;;;;;13.40;99.90;;;;;;5109461;28;19928;-88
2022/10/08 09:48:21;;;;;;;;;;;13.30;99.90;;;;;;5074702;28;20011;-86
2022/10/08 09:50:52;;;;;;;;;;;13.20;99.90;;;;;;5091267;28;19931;-87
2022/10/08 09:53:19;;;;;;;;;;;13.30;99.90;;;;;;5105658;28;19924;-86
2022/10/08 09:56:04;;;;;;;;;;;13.40;99.90;;;;;;5073070;28;19924;-85
2022/10/08 09:58:31;;;;;;;;;;;13.70;99.90;;;;;;5108022;28;19931;-85
2022/10/08 10:01:00;;;;;;;;;;;13.80;99.90;;;;;;5093212;28;19931;-87
2022/10/08 10:03:26;;;;;;;;;;;14.00;99.90;;;;;;5101069;28;19931;-87
2022/10/08 10:05:53;;;;;;;;;;;14.10;99.90;;;;;;5073251;28;19924;-86
2022/10/08 10:08:38;;;;;;;;;;;14.10;99.90;;;;;;5111421;28;19966;-88
2022/10/08 10:11:04;;;;;;;;;;;14.00;99.90;;;;;;5108227;28;19923;-87
2022/10/08 10:13:39;;;;;;;;;;;13.90;99.90;;;;;;5079809;28;19931;-87
2022/10/08 10:16:15;;;;;;;;;;;13.90;99.90;;;;;;5113873;28;19971;-88
2022/10/08 10:18:46;;;;;;;;;;;14.00;99.90;;;;;;5101538;28;19951;-87
2022/10/08 10:21:14;;;;;;;;;;;14.20;99.90;;;;;;5102267;28;19958;-87
2022/10/08 10:23:43;;;;;;;;;;;14.40;99.90;;;;;;5101096;28;19935;-87
2022/10/08 10:26:20;;;;;;;;;;;14.50;99.90;;;;;;5118943;28;19924;-89
2022/10/08 10:28:58;;;;;;;;;;;14.50;99.90;;;;;;5113990;28;19930;-87
2022/10/08 10:31:34;;;;;;;;;;;14.60;99.90;;;;;;5117643;28;19923;-87
2022/10/08 10:34:14;;;;;;;;;;;14.70;99.90;;;;;;5107774;28;19985;-87
2022/10/08 10:36:49;;;;;;;;;;;14.80;99.90;;;;;;5096934;28;19966;-88
2022/10/08 10:39:30;;;;;;;;;;;15.00;99.90;;;;;;5116293;28;19977;-91
2022/10/08 10:42:05;;;;;;;;;;;15.20;99.90;;;;;;5114721;28;19945;-86
2022/10/08 10:44:49;;;;;;;;;;;15.30;99.90;;;;;;5109448;28;19924;-87
2022/10/08 10:47:16;;;;;;;;;;;15.30;99.90;;;;;;5115191;28;19971;-87
2022/10/08 10:49:42;;;;;;;;;;;15.20;99.90;;;;;;5100842;28;20010;-87
2022/10/08 10:52:32;;;;;;;;;;;15.00;99.90;;;;;;5098734;28;20049;-87
2022/10/08 10:55:07;;;;;;;;;;;15.00;99.90;;;;;;5091109;28;19924;-89
2022/10/08 10:57:48;;;;;;;;;;;15.00;99.90;;;;;;5106064;28;19975;-86
2022/10/08 11:00:43;;;;;;;;;;;15.00;99.90;;;;;;5112007;28;19924;-88
2022/10/08 11:03:27;;;;;;;;;;;15.10;99.90;;;;;;5097576;28;20052;-86
2022/10/08 11:06:12;;;;;;;;;;;15.00;99.90;;;;;;5116853;28;19979;-87
2022/10/08 11:08:41;;;;;;;;;;;14.60;99.90;;;;;;5102530;28;19963;-88
2022/10/08 11:11:16;;;;;;;;;;;14.40;99.90;;;;;;5100521;28;20007;-87
2022/10/08 11:13:45;;;;;;;;;;;14.40;99.90;;;;;;5117586;28;19986;-93
2022/10/08 11:16:23;;;;;;;;;;;14.60;99.90;;;;;;5117192;28;19967;-89
2022/10/08 11:18:53;;;;;;;;;;;14.80;99.90;;;;;;5117201;28;19928;-88
2022/10/08 11:21:37;;;;;;;;;;;15.10;99.90;;;;;;5100575;28;19928;-90
2022/10/08 11:24:13;;;;;;;;;;;15.30;99.90;;;;;;5100204;28;19930;-91
2022/10/08 11:26:54;;;;;;;;;;;15.20;99.90;;;;;;5100858;28;19924;-89
2022/10/08 11:29:19;;;;;;;;;;;15.30;99.90;;;;;;5119339;28;19938;-88
2022/10/08 11:31:47;;;;;;;;;;;15.60;99.90;;;;;;5116795;28;19928;-88
2022/10/08 11:34:24;;;;;;;;;;;15.80;99.90;;;;;;5102589;28;19931;-87
2022/10/08 11:37:09;;;;;;;;;;;16.00;99.90;;;;;;5095353;28;19930;-87
2022/10/08 11:39:41;;;;;;;;;;;16.10;99.90;;;;;;5115623;28;19930;-87
2022/10/08 11:42:13;;;;;;;;;;;16.20;99.90;;;;;;5105473;28;19931;-88
2022/10/08 11:44:39;;;;;;;;;;;16.30;99.90;;;;;;5122284;28;19931;-89
2022/10/08 11:47:24;;;;;;;;;;;16.50;99.90;;;;;;5121970;28;19939;-89
2022/10/08 11:49:53;;;;;;;;;;;16.50;99.90;;;;;;5121509;28;19924;-89
2022/10/08 11:52:18;;;;;;;;;;;16.50;99.90;;;;;;5118505;28;19923;-88
2022/10/08 11:54:48;;;;;;;;;;;16.40;99.90;;;;;;5080113;28;20386;-87
2022/10/08 11:57:36;;;;;;;;;;;16.10;98.90;;;;;;5113912;28;19931;-88
2022/10/08 12:00:22;;;;;;;;;;;15.70;99.90;;;;;;5104309;28;20002;-91
2022/10/08 12:02:52;;;;;;;;;;;15.30;99.90;;;;;;5118489;28;20355;-91
2022/10/08 12:05:21;;;;;;;;;;;14.90;99.90;;;;;;5123034;28;19924;-92
2022/10/08 12:07:50;;;;;;;;;;;14.40;99.90;;;;;;5105006;28;19938;-89
2022/10/08 12:10:16;;;;;;;;;;;14.20;99.90;;;;;;5104588;28;19931;-89
2022/10/08 12:12:47;;;;;;;;;;;13.90;99.90;;;;;;5105679;28;19924;-90
2022/10/08 12:15:22;;;;;;;;;;;13.70;99.90;;;;;;5103852;28;19924;-93
2022/10/08 12:17:56;;;;;;;;;;;13.60;99.90;;;;;;5105340;28;19959;-90
2022/10/08 12:20:26;;;;;;;;;;;13.50;99.90;;;;;;5121845;28;19928;-92
2022/10/08 12:23:01;;;;;;;;;;;13.40;99.90;;;;;;5105177;28;19923;-92
2022/10/08 12:25:29;;;;;;;;;;;13.30;99.90;;;;;;5122472;28;19931;-90
2022/10/08 12:28:14;;;;;;;;;;;13.30;99.90;;;;;;5100037;28;19928;-89
2022/10/08 12:30:47;;;;;;;;;;;13.30;99.90;;;;;;5104059;28;19930;-91
2022/10/08 12:33:13;;;;;;;;;;;13.40;99.90;;;;;;5121128;28;19923;-89
2022/10/08 12:35:57;;;;;;;;;;;13.40;99.90;;;;;;5103946;28;19924;-88
2022/10/08 12:38:31;;;;;;;;;;;13.50;99.90;;;;;;5121699;28;19963;-89
2022/10/08 12:41:16;;;;;;;;;;;13.70;99.90;;;;;;5102988;28;19924;-88
2022/10/08 12:43:46;;;;;;;;;;;13.90;99.90;;;;;;5121123;28;19954;-88
2022/10/08 12:46:16;;;;;;;;;;;14.00;99.90;;;;;;5090781;28;19924;-87
2022/10/08 12:48:48;;;;;;;;;;;14.10;99.90;;;;;;5095716;28;19962;-89
2022/10/08 12:51:20;;;;;;;;;;;14.20;99.90;;;;;;5100569;28;19969;-90
2022/10/08 12:53:46;;;;;;;;;;;14.20;99.90;;;;;;5098702;28;19928;-89
2022/10/08 12:56:21;;;;;;;;;;;14.20;99.90;;;;;;5083549;28;19923;-89
2022/10/08 12:58:47;;;;;;;;;;;14.20;99.90;;;;;;5094215;28;19998;-90
2022/10/08 13:01:14;;;;;;;;;;;14.30;99.90;;;;;;5110704;28;19924;-91
2022/10/08 13:03:40;;;;;;;;;;;14.40;99.90;;;;;;5093177;28;19936;-89
2022/10/08 13:06:15;;;;;;;;;;;14.50;99.90;;;;;;5098745;28;20316;-91
2022/10/08 13:08:41;;;;;;;;;;;14.50;99.90;;;;;;5099017;28;20403;-90
2022/10/08 13:11:12;;;;;;;;;;;14.40;99.90;;;;;;5095411;28;19970;-90
2022/10/08 13:13:37;;;;;;;;;;;14.40;99.90;;;;;;5103214;28;19942;-92
2022/10/08 13:16:14;;;;;;;;;;;14.30;99.90;;;;;;5099430;28;19927;-91
2022/10/08 13:18:41;;;;;;;;;;;14.20;99.90;;;;;;5102768;28;19932;-91
2022/10/08 13:21:23;;;;;;;;;;;14.10;99.90;;;;;;5102635;28;19965;-91
2022/10/08 13:23:48;;;;;;;;;;;14.00;99.90;;;;;;5100827;28;19924;-91
2022/10/08 13:26:50;;;;;;;;;;;14.00;99.90;;;;;;5101596;28;19927;-91
2022/10/08 13:29:22;;;;;;;;;;;13.90;99.90;;;;;;5044661;28;19947;-92
2022/10/08 13:31:52;;;;;;;;;;;14.10;99.90;;;;;;5092594;28;19957;-90
2022/10/08 13:34:17;;;;;;;;;;;14.10;99.90;;;;;;5102006;28;19935;-90
2022/10/08 13:36:49;;;;;;;;;;;13.90;99.90;;;;;;5084029;28;19924;-91
2022/10/08 13:39:22;;;;;;;;;;;13.90;99.90;;;;;;5101854;28;19950;-91
2022/10/08 13:42:00;;;;;;;;;;;13.80;99.90;;;;;;5101385;28;19934;-92
2022/10/08 13:44:26;;;;;;;;;;;14.00;99.90;;;;;;5102565;28;19924;-91
2022/10/08 13:46:53;;;;;;;;;;;14.10;99.90;;;;;;5096506;28;19924;-91
2022/10/08 13:49:22;;;;;;;;;;;14.20;99.90;;;;;;5073087;28;19924;-91
2022/10/08 13:51:48;;;;;;;;;;;14.30;99.90;;;;;;5099184;28;19923;-91
2022/10/08 13:54:40;;;;;;;;;;;14.40;99.90;;;;;;5101456;28;19937;-91
2022/10/08 13:57:06;;;;;;;;;;;14.60;99.90;;;;;;5117261;28;19970;-90
2022/10/08 13:59:31;;;;;;;;;;;15.50;99.90;;;;;;5100144;28;20311;-91
2022/10/08 14:01:57;;;;;;;;;;;14.70;99.90;;;;;;5100958;28;19938;-90
2022/10/08 14:04:22;;;;;;;;;;;14.70;99.90;;;;;;5097954;28;19924;-90
2022/10/08 14:06:49;;;;;;;;;;;14.80;99.90;;;;;;5101585;28;19924;-90
2022/10/08 14:09:16;;;;;;;;;;;14.90;99.90;;;;;;5099424;28;19959;-89
2022/10/08 14:11:42;;;;;;;;;;;15.10;99.90;;;;;;5111576;28;19924;-90
2022/10/08 14:14:12;;;;;;;;;;;15.20;99.90;;;;;;5099557;28;19969;-89
2022/10/08 14:16:37;;;;;;;;;;;15.20;99.90;;;;;;5098958;28;19924;-87
2022/10/08 14:19:03;;;;;;;;;;;15.20;99.90;;;;;;5082400;28;19976;-90
2022/10/08 14:21:28;;;;;;;;;;;15.10;99.90;;;;;;5096563;28;19924;-89
2022/10/08 14:23:54;;;;;;;;;;;15.00;99.90;;;;;;5096381;28;19931;-86
2022/10/08 14:26:19;;;;;;;;;;;14.90;99.90;;;;;;5077423;28;19970;-88
2022/10/08 14:28:48;;;;;;;;;;;14.90;99.90;;;;;;5084004;28;20295;-89
2022/10/08 14:31:14;;;;;;;;;;;15.00;99.90;;;;;;5099698;28;19971;-92